createdAt,value
2023-05-23T00:02:02.206Z,61.30
2023-05-23T00:04:29.301Z,61.30
2023-05-23T00:06:56.493Z,61.40
2023-05-23T00:09:23.581Z,61.50
2023-05-23T00:11:50.794Z,61.50
2023-05-23T00:14:18.361Z,61.50
2023-05-23T00:16:46.467Z,61.50
2023-05-23T00:19:17.105Z,61.60
2023-05-23T00:21:50.946Z,61.60
2023-05-23T00:24:18.795Z,61.70
2023-05-23T00:26:46.854Z,61.60
2023-05-23T00:29:18.585Z,61.60
2023-05-23T00:31:46.792Z,61.70
2023-05-23T00:34:17.789Z,61.60
2023-05-23T00:36:48.002Z,61.70
2023-05-23T00:39:21.865Z,61.70
2023-05-23T00:41:52.174Z,61.70
2023-05-23T00:44:21.879Z,61.80
2023-05-23T00:46:59.102Z,61.80
2023-05-23T00:49:28.197Z,61.90
2023-05-23T00:51:55.472Z,61.80
2023-05-23T00:54:31.357Z,61.80
2023-05-23T00:56:59.125Z,61.80
2023-05-23T00:59:27.311Z,61.80
2023-05-23T01:01:57.307Z,61.80
2023-05-23T01:04:28.424Z,61.80
2023-05-23T01:06:56.512Z,61.70
2023-05-23T01:09:27.792Z,61.70
2023-05-23T01:12:27.802Z,61.70
2023-05-23T01:15:06.553Z,61.70
2023-05-23T01:17:53.088Z,62.60
2023-05-23T01:20:27.196Z,61.70
2023-05-23T01:23:12.141Z,61.70
2023-05-23T01:25:59.855Z,61.50
2023-05-23T01:28:45.709Z,61.50
2023-05-23T01:31:14.187Z,61.50
2023-05-23T01:33:41.779Z,61.50
2023-05-23T01:36:10.275Z,61.50
2023-05-23T01:38:37.251Z,61.50
2023-05-23T01:41:04.334Z,61.60
2023-05-23T01:43:31.995Z,61.50
2023-05-23T01:46:00.936Z,61.50
2023-05-23T01:48:29.173Z,61.60
2023-05-23T01:50:57.225Z,61.50
2023-05-23T01:53:25.689Z,61.60
2023-05-23T01:55:53.129Z,61.60
2023-05-23T01:58:22.374Z,61.50
2023-05-23T02:00:49.602Z,61.50
2023-05-23T02:03:17.087Z,61.50
2023-05-23T02:05:44.566Z,61.50
2023-05-23T02:08:11.802Z,61.50
2023-05-23T02:10:38.746Z,61.40
2023-05-23T02:13:05.938Z,61.40
2023-05-23T02:15:33.100Z,61.40
2023-05-23T02:18:02.076Z,61.30
2023-05-23T02:20:29.391Z,61.40
2023-05-23T02:22:56.417Z,62.30
2023-05-23T02:25:23.505Z,61.30
2023-05-23T02:27:50.484Z,61.40
2023-05-23T02:30:17.598Z,61.30
2023-05-23T02:32:44.788Z,61.30
2023-05-23T02:35:13.627Z,61.30
2023-05-23T02:37:41.630Z,61.30
2023-05-23T02:40:09.392Z,61.30
2023-05-23T02:42:36.999Z,61.30
2023-05-23T02:45:04.337Z,61.30
2023-05-23T02:47:31.775Z,61.30
2023-05-23T02:49:58.964Z,61.30
2023-05-23T02:52:26.258Z,61.30
2023-05-23T02:54:53.940Z,61.20
2023-05-23T02:57:21.580Z,61.30
2023-05-23T02:59:48.737Z,61.30
2023-05-23T03:02:15.816Z,62.10
2023-05-23T03:04:42.983Z,61.20
2023-05-23T03:07:20.618Z,61.20
2023-05-23T03:09:55.083Z,61.30
2023-05-23T03:12:22.606Z,61.30
2023-05-23T03:14:49.612Z,61.30
2023-05-23T03:17:16.658Z,61.20
2023-05-23T03:19:43.716Z,61.30
2023-05-23T03:22:10.782Z,61.20
2023-05-23T03:24:37.888Z,61.30
2023-05-23T03:27:05.514Z,61.30
2023-05-23T03:29:33.028Z,61.40
2023-05-23T03:32:00.207Z,61.30
2023-05-23T03:34:27.755Z,61.30
2023-05-23T03:36:54.759Z,61.30
2023-05-23T03:39:22.990Z,61.30
2023-05-23T03:41:50.079Z,61.30
2023-05-23T03:44:17.446Z,61.30
2023-05-23T03:46:44.727Z,61.30
2023-05-23T03:49:11.932Z,61.20
2023-05-23T03:51:39.011Z,61.20
2023-05-23T03:54:06.458Z,61.30
2023-05-23T03:56:33.949Z,61.30
2023-05-23T03:59:01.438Z,61.30
2023-05-23T04:01:28.638Z,61.30
2023-05-23T04:03:55.811Z,61.30
2023-05-23T04:06:25.477Z,61.30
2023-05-23T04:08:53.468Z,61.30
2023-05-23T04:11:22.225Z,61.40
2023-05-23T04:13:49.298Z,61.40
2023-05-23T04:16:16.845Z,61.40
2023-05-23T04:18:47.229Z,61.50
2023-05-23T04:21:14.775Z,61.50
2023-05-23T04:23:51.944Z,61.60
2023-05-23T04:26:19.393Z,61.70
2023-05-23T04:28:54.360Z,61.50
2023-05-23T04:31:25.366Z,61.60
2023-05-23T04:33:52.487Z,61.60
2023-05-23T04:36:20.603Z,61.70
2023-05-23T04:38:52.437Z,61.70
2023-05-23T04:41:23.731Z,61.80
2023-05-23T04:44:30.266Z,61.90
2023-05-23T04:47:14.226Z,62.00
2023-05-23T04:50:00.418Z,62.10
2023-05-23T04:52:28.488Z,62.10
2023-05-23T04:54:56.011Z,62.10
2023-05-23T04:57:23.167Z,62.20
2023-05-23T04:59:50.641Z,62.30
2023-05-23T05:02:17.816Z,62.20
2023-05-23T05:04:44.860Z,62.30
2023-05-23T05:07:11.967Z,62.30
2023-05-23T05:09:39.681Z,62.30
2023-05-23T05:12:07.881Z,62.40
2023-05-23T05:14:35.490Z,62.50
2023-05-23T05:17:02.932Z,62.50
2023-05-23T05:19:37.528Z,62.50
2023-05-23T05:22:08.018Z,62.60
2023-05-23T05:24:35.404Z,62.60
2023-05-23T05:27:02.585Z,62.60
2023-05-23T05:29:31.306Z,62.60
2023-05-23T05:31:58.753Z,62.70
2023-05-23T05:34:25.809Z,62.70
2023-05-23T05:36:56.002Z,62.80
2023-05-23T05:39:26.357Z,62.80
2023-05-23T05:41:53.567Z,62.80
2023-05-23T05:44:21.015Z,62.90
2023-05-23T05:46:48.931Z,62.90
2023-05-23T05:49:16.044Z,62.90
2023-05-23T05:51:45.860Z,63.00
2023-05-23T05:54:13.194Z,62.90
2023-05-23T05:56:40.572Z,63.00
2023-05-23T05:59:07.751Z,63.00
2023-05-23T06:01:35.871Z,63.00
2023-05-23T06:04:03.252Z,63.10
2023-05-23T06:06:32.286Z,63.10
2023-05-23T06:08:59.800Z,63.10
2023-05-23T06:11:26.977Z,63.10
2023-05-23T06:13:54.072Z,63.10
2023-05-23T06:16:21.311Z,63.00
2023-05-23T06:18:48.682Z,63.10
2023-05-23T06:21:16.114Z,63.10
2023-05-23T06:23:43.585Z,63.10
2023-05-23T06:26:10.900Z,63.10
2023-05-23T06:28:41.456Z,63.10
2023-05-23T06:31:11.816Z,63.10
2023-05-23T06:33:39.479Z,63.20
2023-05-23T06:36:06.778Z,63.20
2023-05-23T06:38:33.867Z,63.30
2023-05-23T06:41:02.326Z,63.30
2023-05-23T06:43:29.635Z,63.40
2023-05-23T06:46:12.807Z,63.40
2023-05-23T06:48:40.309Z,63.40
2023-05-23T06:51:07.507Z,63.40
2023-05-23T06:53:34.636Z,63.60
2023-05-23T06:56:02.021Z,63.60
2023-05-23T06:58:31.844Z,63.60
2023-05-23T07:01:03.210Z,63.60
2023-05-23T07:03:38.390Z,63.60
2023-05-23T07:06:08.213Z,63.60
2023-05-23T07:08:35.946Z,63.70
2023-05-23T07:11:05.319Z,63.80
2023-05-23T07:13:39.812Z,63.80
2023-05-23T07:16:07.038Z,63.80
2023-05-23T07:18:38.752Z,63.90
2023-05-23T07:21:07.452Z,63.90
2023-05-23T07:23:34.847Z,64.00
2023-05-23T07:26:03.292Z,64.00
2023-05-23T07:28:45.467Z,64.00
2023-05-23T07:31:13.568Z,64.10
2023-05-23T07:33:42.881Z,65.00
2023-05-23T07:36:12.133Z,64.20
2023-05-23T07:38:39.255Z,64.20
2023-05-23T07:41:11.456Z,64.20
2023-05-23T07:43:41.194Z,64.40
2023-05-23T07:46:08.726Z,65.40
2023-05-23T07:48:36.974Z,64.40
2023-05-23T07:51:04.633Z,64.50
2023-05-23T07:53:31.778Z,64.40
2023-05-23T07:55:59.204Z,64.50
2023-05-23T07:58:31.025Z,64.50
2023-05-23T08:00:59.518Z,64.50
2023-05-23T08:03:44.966Z,64.60
2023-05-23T08:06:18.921Z,64.50
2023-05-23T08:08:46.480Z,64.40
2023-05-23T08:11:15.530Z,64.40
2023-05-23T08:13:46.635Z,64.40
2023-05-23T08:16:34.778Z,64.40
2023-05-23T08:19:02.557Z,64.40
2023-05-23T08:21:29.662Z,64.40
2023-05-23T08:23:56.804Z,64.30
2023-05-23T08:26:24.032Z,64.40
2023-05-23T08:28:52.940Z,64.30
2023-05-23T08:31:20.320Z,64.20
2023-05-23T08:33:47.441Z,64.30
2023-05-23T08:36:14.442Z,64.30
2023-05-23T08:38:43.640Z,64.20
2023-05-23T08:41:23.532Z,64.20
2023-05-23T08:43:57.304Z,64.30
2023-05-23T08:46:29.336Z,64.40
2023-05-23T08:48:58.961Z,64.40
2023-05-23T08:51:28.149Z,64.20
2023-05-23T08:53:59.404Z,64.00
2023-05-23T08:56:28.882Z,64.00
2023-05-23T08:58:58.448Z,64.00
2023-05-23T09:01:27.961Z,65.00
2023-05-23T09:04:02.979Z,64.20
2023-05-23T09:06:37.988Z,64.20
2023-05-23T09:09:07.249Z,64.20
2023-05-23T09:11:36.241Z,64.00
2023-05-23T09:14:07.990Z,63.90
2023-05-23T09:16:35.744Z,63.80
2023-05-23T09:19:13.749Z,63.70
2023-05-23T09:21:45.776Z,63.80
2023-05-23T09:24:22.706Z,63.60
2023-05-23T09:26:50.068Z,63.60
2023-05-23T09:29:21.513Z,63.60
2023-05-23T09:31:48.893Z,63.60
2023-05-23T09:34:16.087Z,63.50
2023-05-23T09:36:44.257Z,63.40
2023-05-23T09:39:12.940Z,63.60
2023-05-23T09:41:40.736Z,63.60
2023-05-23T09:44:10.951Z,63.50
2023-05-23T09:46:38.784Z,63.50
2023-05-23T09:49:18.154Z,63.50
2023-05-23T09:51:58.833Z,63.50
2023-05-23T09:54:26.138Z,63.40
2023-05-23T09:56:56.941Z,63.30
2023-05-23T09:59:28.765Z,63.10
2023-05-23T10:01:58.146Z,63.10
2023-05-23T10:04:26.910Z,63.00
2023-05-23T10:07:00.081Z,63.90
2023-05-23T10:09:29.320Z,63.10
2023-05-23T10:12:33.037Z,63.10
2023-05-23T10:15:05.872Z,63.10
2023-05-23T10:18:02.676Z,62.80
2023-05-23T10:20:35.067Z,62.70
2023-05-23T10:23:03.412Z,62.60
2023-05-23T10:25:31.027Z,62.90
2023-05-23T10:28:01.667Z,63.00
2023-05-23T10:30:30.471Z,63.00
2023-05-23T10:32:59.381Z,62.90
2023-05-23T10:36:13.399Z,62.70
2023-05-23T10:39:00.611Z,62.60
2023-05-23T10:41:52.020Z,62.30
2023-05-23T10:44:27.784Z,62.50
2023-05-23T10:47:04.082Z,62.30
2023-05-23T10:49:45.128Z,62.50
2023-05-23T10:52:16.567Z,62.30
2023-05-23T10:54:51.818Z,63.20
2023-05-23T10:57:27.890Z,62.30
2023-05-23T10:59:55.130Z,62.10
2023-05-23T11:02:29.502Z,62.10
2023-05-23T11:05:22.883Z,62.00
2023-05-23T11:08:09.743Z,61.90
2023-05-23T11:11:12.422Z,61.90
2023-05-23T11:14:03.054Z,61.90
2023-05-23T11:16:35.431Z,62.90
2023-05-23T11:19:22.960Z,62.20
2023-05-23T11:21:54.644Z,62.40
2023-05-23T11:24:22.572Z,62.60
2023-05-23T11:26:55.493Z,62.70
2023-05-23T11:29:22.614Z,63.00
2023-05-23T11:31:49.795Z,62.90
2023-05-23T11:34:18.595Z,63.20
2023-05-23T11:36:45.790Z,63.30
2023-05-23T11:39:13.865Z,63.30
2023-05-23T11:41:43.333Z,63.40
2023-05-23T11:44:13.678Z,63.60
2023-05-23T11:46:41.440Z,63.80
2023-05-23T11:49:12.703Z,63.70
2023-05-23T11:51:39.961Z,64.00
2023-05-23T11:54:07.500Z,64.00
2023-05-23T11:56:40.705Z,64.00
2023-05-23T11:59:07.998Z,64.30
2023-05-23T12:01:37.584Z,64.20
2023-05-23T12:04:14.021Z,64.30
2023-05-23T12:06:41.967Z,64.30
2023-05-23T12:09:12.480Z,64.30
2023-05-23T12:11:40.936Z,64.50
2023-05-23T12:14:09.349Z,64.40
2023-05-23T12:16:37.965Z,64.50
2023-05-23T12:19:06.952Z,64.50
2023-05-23T12:21:48.149Z,65.50
2023-05-23T12:24:17.590Z,64.60
2023-05-23T12:26:53.002Z,64.50
2023-05-23T12:29:35.414Z,64.60
2023-05-23T12:32:04.805Z,64.50
2023-05-23T12:34:32.005Z,64.40
2023-05-23T12:37:18.041Z,64.50
2023-05-23T12:39:46.731Z,64.50
2023-05-23T12:42:13.914Z,64.50
2023-05-23T12:44:44.186Z,64.60
2023-05-23T12:47:11.342Z,64.70
2023-05-23T12:49:38.587Z,64.70
2023-05-23T12:52:06.225Z,64.70
2023-05-23T12:54:33.341Z,64.70
2023-05-23T12:57:00.403Z,64.70
2023-05-23T12:59:27.549Z,64.80
2023-05-23T13:01:56.105Z,64.70
2023-05-23T13:04:23.255Z,64.70
2023-05-23T13:06:51.059Z,64.70
2023-05-23T13:09:18.368Z,64.70
2023-05-23T13:11:46.787Z,64.80
2023-05-23T13:14:14.127Z,64.80
2023-05-23T13:16:41.521Z,64.80
2023-05-23T13:19:08.664Z,64.80
2023-05-23T13:21:36.202Z,65.00
2023-05-23T13:24:03.238Z,65.00
2023-05-23T13:26:30.599Z,65.10
2023-05-23T13:28:57.935Z,65.00
2023-05-23T13:31:25.347Z,65.20
2023-05-23T13:33:52.768Z,65.20
2023-05-23T13:36:20.101Z,65.10
2023-05-23T13:38:47.385Z,65.20
2023-05-23T13:41:14.655Z,65.30
2023-05-23T13:43:41.715Z,65.50
2023-05-23T13:46:08.890Z,65.50
2023-05-23T13:48:37.042Z,65.70
2023-05-23T13:51:04.343Z,65.70
2023-05-23T13:53:31.621Z,65.70
2023-05-23T13:56:00.130Z,65.70
2023-05-23T13:58:27.545Z,65.80
2023-05-23T14:00:55.276Z,65.90
2023-05-23T14:03:22.868Z,66.00
2023-05-23T14:05:51.407Z,66.00
2023-05-23T14:08:18.641Z,66.00
2023-05-23T14:10:45.858Z,66.00
2023-05-23T14:13:12.850Z,66.00
2023-05-23T14:15:42.198Z,66.00
2023-05-23T14:18:09.703Z,66.00
2023-05-23T14:20:36.905Z,66.00
2023-05-23T14:23:03.890Z,66.10
2023-05-23T14:25:31.126Z,66.10
2023-05-23T14:27:58.367Z,66.10
2023-05-23T14:30:25.876Z,66.10
2023-05-23T14:32:54.269Z,66.10
2023-05-23T14:35:26.180Z,66.10
2023-05-23T14:37:53.190Z,66.10
2023-05-23T14:40:20.266Z,66.10
2023-05-23T14:42:47.326Z,66.10
2023-05-23T14:45:15.817Z,66.10
2023-05-23T14:47:45.041Z,66.00
2023-05-23T14:50:12.448Z,66.10
2023-05-23T14:52:39.498Z,66.10
2023-05-23T14:55:07.237Z,66.00
2023-05-23T14:57:34.204Z,66.00
2023-05-23T15:00:03.809Z,66.00
2023-05-23T15:02:31.144Z,66.90
2023-05-23T15:04:58.461Z,66.00
2023-05-23T15:07:26.186Z,66.00
2023-05-23T15:09:53.689Z,66.00
2023-05-23T15:12:20.947Z,66.00
2023-05-23T15:14:48.222Z,66.00
2023-05-23T15:17:20.077Z,66.00
2023-05-23T15:19:47.386Z,66.00
2023-05-23T15:22:33.678Z,66.10
2023-05-23T15:25:01.962Z,66.10
2023-05-23T15:27:29.147Z,66.40
2023-05-23T15:29:56.193Z,66.50
2023-05-23T15:32:23.254Z,66.50
2023-05-23T15:34:50.558Z,66.60
2023-05-23T15:37:17.994Z,66.70
2023-05-23T15:39:45.229Z,66.80
2023-05-23T15:42:12.361Z,66.90
2023-05-23T15:44:39.384Z,67.10
2023-05-23T15:47:06.361Z,67.10
2023-05-23T15:49:33.381Z,67.30
2023-05-23T15:52:00.709Z,67.30
2023-05-23T15:54:27.798Z,67.20
2023-05-23T15:56:54.847Z,67.20
2023-05-23T15:59:21.906Z,67.10
2023-05-23T16:01:49.027Z,67.20
2023-05-23T16:04:16.200Z,67.30
2023-05-23T16:06:43.419Z,68.30
2023-05-23T16:09:10.995Z,67.40
2023-05-23T16:11:38.089Z,67.30
2023-05-23T16:14:05.994Z,67.20
2023-05-23T16:16:33.168Z,67.10
2023-05-23T16:19:00.245Z,67.20
2023-05-23T16:21:27.455Z,67.20
2023-05-23T16:23:54.429Z,67.20
2023-05-23T16:26:21.565Z,67.20
2023-05-23T16:28:48.561Z,67.20
2023-05-23T16:31:16.840Z,67.50
2023-05-23T16:33:45.002Z,67.40
2023-05-23T16:36:11.951Z,67.20
2023-05-23T16:38:38.939Z,67.20
2023-05-23T16:41:05.984Z,67.00
2023-05-23T16:43:34.635Z,66.90
2023-05-23T16:46:01.690Z,66.90
2023-05-23T16:48:28.947Z,66.80
2023-05-23T16:50:57.891Z,66.80
2023-05-23T16:53:24.937Z,66.90
2023-05-23T16:55:51.958Z,66.90
2023-05-23T16:58:21.218Z,67.00
2023-05-23T17:00:48.786Z,67.00
2023-05-23T17:03:16.406Z,67.10
2023-05-23T17:05:43.590Z,67.20
2023-05-23T17:08:10.829Z,67.10
2023-05-23T17:10:37.990Z,67.10
2023-05-23T17:13:04.990Z,67.10
2023-05-23T17:15:32.120Z,67.10
2023-05-23T17:17:59.131Z,67.10
2023-05-23T17:20:26.968Z,67.10
2023-05-23T17:22:54.959Z,67.10
2023-05-23T17:25:22.229Z,67.10
2023-05-23T17:27:49.244Z,67.10
2023-05-23T17:30:18.623Z,67.10
2023-05-23T17:32:47.271Z,67.20
2023-05-23T17:35:14.726Z,67.20
2023-05-23T17:37:43.535Z,67.20
2023-05-23T17:40:15.697Z,67.30
2023-05-23T17:42:43.250Z,67.20
2023-05-23T17:45:10.625Z,67.20
2023-05-23T17:47:37.855Z,67.20
2023-05-23T17:50:06.258Z,67.30
2023-05-23T17:52:33.389Z,67.30
2023-05-23T17:55:00.828Z,67.30
2023-05-23T17:57:28.905Z,67.40
2023-05-23T17:59:55.955Z,67.30
2023-05-23T18:02:23.172Z,67.20
2023-05-23T18:04:50.361Z,67.30
2023-05-23T18:07:18.953Z,67.40
2023-05-23T18:09:47.187Z,67.30
2023-05-23T18:12:15.090Z,67.20
2023-05-23T18:14:42.370Z,67.30
2023-05-23T18:17:09.892Z,67.10
2023-05-23T18:19:37.380Z,67.00
2023-05-23T18:22:04.816Z,66.90
2023-05-23T18:24:31.815Z,66.90
2023-05-23T18:26:58.852Z,66.80
2023-05-23T18:29:26.194Z,67.70
2023-05-23T18:31:53.361Z,66.70
2023-05-23T18:34:21.625Z,66.50
2023-05-23T18:36:48.970Z,66.40
2023-05-23T18:39:16.849Z,66.30
2023-05-23T18:41:44.164Z,66.40
2023-05-23T18:44:11.329Z,66.40
2023-05-23T18:46:38.515Z,66.40
2023-05-23T18:49:05.959Z,66.10
2023-05-23T18:51:33.841Z,66.00
2023-05-23T18:54:01.035Z,66.00
2023-05-23T18:56:28.147Z,66.00
2023-05-23T18:58:55.857Z,66.30
2023-05-23T19:01:22.955Z,66.30
2023-05-23T19:03:50.232Z,66.50
2023-05-23T19:06:17.508Z,66.60
2023-05-23T19:08:45.091Z,66.70
2023-05-23T19:11:12.205Z,66.70
2023-05-23T19:13:39.295Z,66.60
2023-05-23T19:16:07.233Z,66.70
2023-05-23T19:18:34.233Z,66.80
2023-05-23T19:21:01.170Z,66.80
2023-05-23T19:23:28.260Z,66.80
2023-05-23T19:25:55.296Z,66.80
2023-05-23T19:28:22.421Z,66.80
2023-05-23T19:30:49.495Z,66.80
2023-05-23T19:33:18.518Z,66.80
2023-05-23T19:35:45.671Z,66.80
2023-05-23T19:38:12.752Z,66.80
2023-05-23T19:40:40.158Z,66.70
2023-05-23T19:43:07.371Z,66.60
2023-05-23T19:45:34.444Z,66.80
2023-05-23T19:48:01.843Z,66.60
2023-05-23T19:50:29.060Z,66.70
2023-05-23T19:52:56.238Z,66.60
2023-05-23T19:55:23.699Z,66.60
2023-05-23T19:57:50.816Z,66.50
2023-05-23T20:00:18.571Z,66.60
2023-05-23T20:02:47.318Z,66.50
2023-05-23T20:05:14.304Z,66.60
2023-05-23T20:07:41.583Z,66.40
2023-05-23T20:10:09.305Z,66.40
2023-05-23T20:12:36.670Z,66.40
2023-05-23T20:15:04.771Z,66.40
2023-05-23T20:17:32.312Z,66.40
2023-05-23T20:19:59.344Z,66.40
2023-05-23T20:22:26.866Z,66.30
2023-05-23T20:24:54.081Z,66.20
2023-05-23T20:27:21.672Z,66.10
2023-05-23T20:29:50.418Z,66.20
2023-05-23T20:32:17.548Z,66.10
2023-05-23T20:34:45.230Z,66.20
2023-05-23T20:37:13.791Z,66.20
2023-05-23T20:39:44.101Z,66.30
2023-05-23T20:42:11.306Z,66.20
2023-05-23T20:44:38.624Z,66.30
2023-05-23T20:47:06.815Z,66.30
2023-05-23T20:49:34.913Z,66.30
2023-05-23T20:52:02.144Z,66.30
2023-05-23T20:54:29.253Z,66.40
2023-05-23T20:56:56.486Z,66.40
2023-05-23T20:59:26.175Z,66.30
2023-05-23T21:01:53.446Z,66.30
2023-05-23T21:04:20.560Z,66.40
2023-05-23T21:06:47.743Z,66.30
2023-05-23T21:09:16.112Z,66.30
2023-05-23T21:11:43.410Z,66.30
2023-05-23T21:14:10.401Z,66.40
2023-05-23T21:16:38.076Z,66.40
2023-05-23T21:19:05.146Z,66.30
2023-05-23T21:21:32.297Z,66.30
2023-05-23T21:23:59.384Z,66.40
2023-05-23T21:26:26.403Z,67.30
2023-05-23T21:28:53.332Z,66.50
2023-05-23T21:31:29.779Z,66.50
2023-05-23T21:34:18.498Z,66.50
2023-05-23T21:36:49.253Z,66.50
2023-05-23T21:39:16.452Z,66.50
2023-05-23T21:41:43.540Z,66.50
2023-05-23T21:44:10.610Z,66.50
2023-05-23T21:46:37.740Z,66.60
2023-05-23T21:49:04.864Z,66.60
2023-05-23T21:51:32.344Z,67.50
2023-05-23T21:53:59.266Z,66.60
2023-05-23T21:56:27.934Z,66.60
2023-05-23T21:58:55.346Z,66.50
2023-05-23T22:01:22.479Z,66.60
2023-05-23T22:03:49.806Z,66.60
2023-05-23T22:06:16.837Z,66.60
2023-05-23T22:08:45.869Z,66.60
2023-05-23T22:11:13.225Z,66.70
2023-05-23T22:13:40.762Z,66.70
2023-05-23T22:16:07.857Z,66.60
2023-05-23T22:21:07.389Z,66.60
2023-05-23T22:23:34.588Z,66.70
2023-05-23T22:26:01.662Z,66.60
2023-05-23T22:28:28.716Z,66.60
2023-05-23T22:30:56.423Z,66.60
2023-05-23T22:33:23.332Z,66.60
2023-05-23T22:35:50.576Z,66.60
2023-05-23T22:38:18.481Z,66.60
2023-05-23T22:40:45.411Z,66.70
2023-05-23T22:43:12.350Z,66.60
2023-05-23T22:45:42.632Z,66.60
2023-05-23T22:48:11.510Z,66.70
2023-05-23T22:50:41.934Z,67.60
2023-05-23T22:53:09.348Z,66.60
2023-05-23T22:55:36.534Z,66.70
2023-05-23T22:58:03.809Z,66.70
2023-05-23T23:00:30.715Z,66.70
2023-05-23T23:02:57.921Z,66.70
2023-05-23T23:05:25.045Z,66.60
2023-05-23T23:07:52.209Z,66.60
2023-05-23T23:10:19.462Z,66.70
2023-05-23T23:12:46.402Z,66.60
2023-05-23T23:15:13.508Z,66.70
2023-05-23T23:17:40.498Z,66.60
2023-05-23T23:20:08.555Z,66.50
2023-05-23T23:22:36.523Z,66.50
2023-05-23T23:25:10.589Z,66.70
2023-05-23T23:27:38.889Z,66.60
2023-05-23T23:30:09.634Z,66.60
2023-05-23T23:32:36.682Z,66.50
2023-05-23T23:35:03.956Z,66.60
2023-05-23T23:37:30.973Z,66.50
2023-05-23T23:39:58.059Z,66.60
2023-05-23T23:42:25.036Z,66.60
2023-05-23T23:44:52.096Z,66.60
2023-05-23T23:47:19.161Z,67.50
2023-05-23T23:49:46.108Z,66.50
2023-05-23T23:52:13.471Z,66.40
2023-05-23T23:54:40.403Z,66.50
2023-05-23T23:57:13.470Z,66.50
2023-05-23T23:59:44.104Z,66.40
